Terminal Aerodrome Forecast
Issued by NWS Quad Cities IA IL

Home | Current Version | Previous Version | Text Only | Print | Product List | Glossary On
Versions: 1 2 3 4 5 6 7 8 9 10 11 12 13 14 15 16
711
FTUS43 KDVN 242334 CCA
TAFMLI
TAF COR
KMLI 242334Z 2500/2524 24005KT P6SM SCT050
     FM250200 25006KT P6SM VCSH SCT025 BKN050
      TEMPO 2502/2506 2SM TSRA BR BKN020CB OVC035
     FM250600 31005KT P6SM SCT030 BKN050
     FM251400 33006KT P6SM SCT200=

USA.gov is the U.S. government's official web portal to all federal, state and local government web resources and services.